sensor_id;sensor_type;location;lat;lon;timestamp;pressure;altitude;pressure_sealevel;temperature;humidity
59073;BME280;44859;51.934;15.554;2022-10-17T00:00:57;100477.70;;;14.79;97.27
59073;BME280;44859;51.934;15.554;2022-10-17T00:03:34;100470.09;;;14.72;97.08
59073;BME280;44859;51.934;15.554;2022-10-17T00:06:08;100456.83;;;14.72;97.15
59073;BME280;44859;51.934;15.554;2022-10-17T00:08:37;100464.95;;;14.73;97.50
59073;BME280;44859;51.934;15.554;2022-10-17T00:11:14;100470.78;;;14.73;97.96
59073;BME280;44859;51.934;15.554;2022-10-17T00:13:46;100476.93;;;14.73;98.07
59073;BME280;44859;51.934;15.554;2022-10-17T00:16:22;100492.86;;;14.70;98.37
59073;BME280;44859;51.934;15.554;2022-10-17T00:18:52;100508.29;;;14.62;99.06
59073;BME280;44859;51.934;15.554;2022-10-17T00:21:27;100516.30;;;14.57;99.59
59073;BME280;44859;51.934;15.554;2022-10-17T00:23:56;100516.20;;;14.53;99.75
59073;BME280;44859;51.934;15.554;2022-10-17T00:26:27;100521.88;;;14.49;99.72
59073;BME280;44859;51.934;15.554;2022-10-17T00:28:56;100522.42;;;14.45;99.71
59073;BME280;44859;51.934;15.554;2022-10-17T00:31:25;100521.44;;;14.40;99.80
59073;BME280;44859;51.934;15.554;2022-10-17T00:33:53;100518.83;;;14.36;99.92
59073;BME280;44859;51.934;15.554;2022-10-17T00:36:24;100520.58;;;14.33;99.97
59073;BME280;44859;51.934;15.554;2022-10-17T00:38:57;100514.19;;;14.30;100.00
59073;BME280;44859;51.934;15.554;2022-10-17T00:41:29;100513.11;;;14.30;100.00
59073;BME280;44859;51.934;15.554;2022-10-17T00:44:05;100508.67;;;14.31;100.00
59073;BME280;44859;51.934;15.554;2022-10-17T00:46:37;100502.88;;;14.30;100.00
59073;BME280;44859;51.934;15.554;2022-10-17T00:49:08;100499.38;;;14.30;100.00
59073;BME280;44859;51.934;15.554;2022-10-17T00:51:49;100497.91;;;14.31;100.00
59073;BME280;44859;51.934;15.554;2022-10-17T00:54:20;100505.39;;;14.33;100.00
59073;BME280;44859;51.934;15.554;2022-10-17T00:56:50;100509.92;;;14.34;100.00
59073;BME280;44859;51.934;15.554;2022-10-17T00:59:19;100515.30;;;14.36;100.00
59073;BME280;44859;51.934;15.554;2022-10-17T01:01:59;100512.80;;;14.36;100.00
59073;BME280;44859;51.934;15.554;2022-10-17T01:04:29;100515.77;;;14.37;100.00
59073;BME280;44859;51.934;15.554;2022-10-17T01:07:00;100519.80;;;14.38;100.00
59073;BME280;44859;51.934;15.554;2022-10-17T01:09:29;100528.31;;;14.37;100.00
59073;BME280;44859;51.934;15.554;2022-10-17T01:17:22;100523.77;;;14.33;100.00
59073;BME280;44859;51.934;15.554;2022-10-17T01:23:06;100530.62;;;14.34;100.00
59073;BME280;44859;51.934;15.554;2022-10-17T01:31:15;100520.59;;;14.36;100.00
59073;BME280;44859;51.934;15.554;2022-10-17T01:33:58;100515.77;;;14.37;100.00
59073;BME280;44859;51.934;15.554;2022-10-17T01:45:11;100513.10;;;14.37;100.00
59073;BME280;44859;51.934;15.554;2022-10-17T01:47:45;100518.09;;;14.37;100.00
59073;BME280;44859;51.934;15.554;2022-10-17T01:50:20;100516.08;;;14.38;100.00
59073;BME280;44859;51.934;15.554;2022-10-17T01:53:04;100516.98;;;14.41;100.00
59073;BME280;44859;51.934;15.554;2022-10-17T01:55:39;100514.47;;;14.42;100.00
59073;BME280;44859;51.934;15.554;2022-10-17T01:58:13;100509.95;;;14.44;100.00
59073;BME280;44859;51.934;15.554;2022-10-17T02:00:45;100513.39;;;14.46;100.00
59073;BME280;44859;51.934;15.554;2022-10-17T02:03:18;100516.25;;;14.45;100.00
59073;BME280;44859;51.934;15.554;2022-10-17T02:05:49;100521.60;;;14.41;100.00
59073;BME280;44859;51.934;15.554;2022-10-17T02:08:38;100517.73;;;14.37;100.00
59073;BME280;44859;51.934;15.554;2022-10-17T02:11:19;100513.85;;;14.33;100.00
59073;BME280;44859;51.934;15.554;2022-10-17T02:14:17;100505.48;;;14.31;100.00
59073;BME280;44859;51.934;15.554;2022-10-17T02:17:02;100509.60;;;14.33;100.00
59073;BME280;44859;51.934;15.554;2022-10-17T02:23:09;100499.55;;;14.36;100.00
59073;BME280;44859;51.934;15.554;2022-10-17T02:25:53;100501.38;;;14.35;100.00
59073;BME280;44859;51.934;15.554;2022-10-17T02:28:39;100511.55;;;14.30;100.00
59073;BME280;44859;51.934;15.554;2022-10-17T02:31:21;100514.65;;;14.25;100.00
59073;BME280;44859;51.934;15.554;2022-10-17T02:34:01;100512.09;;;14.20;100.00
59073;BME280;44859;51.934;15.554;2022-10-17T02:36:41;100509.33;;;14.19;100.00
59073;BME280;44859;51.934;15.554;2022-10-17T02:39:12;100507.16;;;14.20;100.00
59073;BME280;44859;51.934;15.554;2022-10-17T02:41:43;100515.46;;;14.20;100.00
59073;BME280;44859;51.934;15.554;2022-10-17T02:44:13;100517.08;;;14.19;100.00
59073;BME280;44859;51.934;15.554;2022-10-17T02:46:44;100516.21;;;14.19;100.00
59073;BME280;44859;51.934;15.554;2022-10-17T02:49:22;100523.80;;;14.19;100.00
59073;BME280;44859;51.934;15.554;2022-10-17T02:52:11;100527.98;;;14.20;100.00
59073;BME280;44859;51.934;15.554;2022-10-17T02:54:51;100530.21;;;14.18;100.00
59073;BME280;44859;51.934;15.554;2022-10-17T02:57:27;100532.07;;;14.16;100.00
59073;BME280;44859;51.934;15.554;2022-10-17T03:00:04;100532.28;;;14.15;100.00
59073;BME280;44859;51.934;15.554;2022-10-17T03:02:41;100530.77;;;14.14;100.00
59073;BME280;44859;51.934;15.554;2022-10-17T03:05:15;100522.44;;;14.12;100.00
59073;BME280;44859;51.934;15.554;2022-10-17T03:07:46;100518.94;;;14.11;100.00
59073;BME280;44859;51.934;15.554;2022-10-17T03:10:18;100514.73;;;14.10;100.00
59073;BME280;44859;51.934;15.554;2022-10-17T03:12:50;100514.71;;;14.10;100.00
59073;BME280;44859;51.934;15.554;2022-10-17T03:15:19;100512.77;;;14.10;100.00
59073;BME280;44859;51.934;15.554;2022-10-17T03:17:47;100512.45;;;14.10;100.00
59073;BME280;44859;51.934;15.554;2022-10-17T03:20:18;100515.14;;;14.09;100.00
59073;BME280;44859;51.934;15.554;2022-10-17T03:22:47;100518.70;;;14.09;100.00
59073;BME280;44859;51.934;15.554;2022-10-17T03:25:15;100523.29;;;14.05;100.00
59073;BME280;44859;51.934;15.554;2022-10-17T03:27:44;100524.86;;;14.02;100.00
59073;BME280;44859;51.934;15.554;2022-10-17T03:30:14;100529.05;;;13.99;100.00
59073;BME280;44859;51.934;15.554;2022-10-17T03:32:42;100530.10;;;13.96;100.00
59073;BME280;44859;51.934;15.554;2022-10-17T03:35:15;100532.71;;;13.93;100.00
59073;BME280;44859;51.934;15.554;2022-10-17T03:37:44;100531.84;;;13.93;100.00
59073;BME280;44859;51.934;15.554;2022-10-17T03:40:13;100533.92;;;13.94;100.00
59073;BME280;44859;51.934;15.554;2022-10-17T03:42:45;100533.98;;;13.93;100.00
59073;BME280;44859;51.934;15.554;2022-10-17T03:45:14;100535.23;;;13.89;100.00
59073;BME280;44859;51.934;15.554;2022-10-17T03:47:42;100535.07;;;13.89;100.00
59073;BME280;44859;51.934;15.554;2022-10-17T03:50:11;100535.35;;;13.87;100.00
59073;BME280;44859;51.934;15.554;2022-10-17T03:52:40;100535.05;;;13.86;100.00
59073;BME280;44859;51.934;15.554;2022-10-17T03:55:08;100531.13;;;13.83;100.00
59073;BME280;44859;51.934;15.554;2022-10-17T03:57:36;100525.27;;;13.80;100.00
59073;BME280;44859;51.934;15.554;2022-10-17T04:00:11;100523.48;;;13.77;100.00
59073;BME280;44859;51.934;15.554;2022-10-17T04:02:40;100525.59;;;13.73;100.00
59073;BME280;44859;51.934;15.554;2022-10-17T04:05:08;100526.20;;;13.72;100.00
59073;BME280;44859;51.934;15.554;2022-10-17T04:07:37;100526.15;;;13.69;100.00
59073;BME280;44859;51.934;15.554;2022-10-17T04:10:05;100530.05;;;13.65;100.00
59073;BME280;44859;51.934;15.554;2022-10-17T04:12:33;100529.59;;;13.60;100.00
59073;BME280;44859;51.934;15.554;2022-10-17T04:15:02;100532.47;;;13.56;100.00
59073;BME280;44859;51.934;15.554;2022-10-17T04:17:31;100537.48;;;13.51;100.00
59073;BME280;44859;51.934;15.554;2022-10-17T04:20:05;100536.17;;;13.45;100.00
59073;BME280;44859;51.934;15.554;2022-10-17T04:22:33;100538.34;;;13.40;100.00
59073;BME280;44859;51.934;15.554;2022-10-17T04:25:03;100540.11;;;13.37;100.00
59073;BME280;44859;51.934;15.554;2022-10-17T04:27:31;100541.05;;;13.35;100.00
59073;BME280;44859;51.934;15.554;2022-10-17T04:29:59;100545.15;;;13.34;100.00
59073;BME280;44859;51.934;15.554;2022-10-17T04:32:35;100548.98;;;13.31;100.00
59073;BME280;44859;51.934;15.554;2022-10-17T04:35:04;100552.45;;;13.28;100.00
59073;BME280;44859;51.934;15.554;2022-10-17T04:37:33;100546.08;;;13.25;100.00
59073;BME280;44859;51.934;15.554;2022-10-17T04:40:01;100546.73;;;13.22;100.00
59073;BME280;44859;51.934;15.554;2022-10-17T04:42:30;100544.39;;;13.20;100.00
59073;BME280;44859;51.934;15.554;2022-10-17T04:44:58;100549.79;;;13.18;100.00
59073;BME280;44859;51.934;15.554;2022-10-17T04:47:28;100551.12;;;13.16;100.00
59073;BME280;44859;51.934;15.554;2022-10-17T04:49:56;100550.30;;;13.15;100.00
59073;BME280;44859;51.934;15.554;2022-10-17T04:52:25;100551.17;;;13.15;100.00
59073;BME280;44859;51.934;15.554;2022-10-17T04:54:54;100551.55;;;13.14;100.00
59073;BME280;44859;51.934;15.554;2022-10-17T04:57:22;100548.62;;;13.13;100.00
59073;BME280;44859;51.934;15.554;2022-10-17T04:59:51;100546.76;;;13.11;100.00
59073;BME280;44859;51.934;15.554;2022-10-17T05:02:19;100542.25;;;13.09;100.00
59073;BME280;44859;51.934;15.554;2022-10-17T05:04:47;100546.13;;;13.09;100.00
59073;BME280;44859;51.934;15.554;2022-10-17T05:07:16;100547.08;;;13.08;100.00
59073;BME280;44859;51.934;15.554;2022-10-17T05:09:44;100549.44;;;13.06;100.00
59073;BME280;44859;51.934;15.554;2022-10-17T05:12:12;100546.56;;;13.04;100.00
59073;BME280;44859;51.934;15.554;2022-10-17T05:14:40;100547.16;;;13.02;100.00
59073;BME280;44859;51.934;15.554;2022-10-17T05:17:09;100546.38;;;13.01;100.00
59073;BME280;44859;51.934;15.554;2022-10-17T05:19:38;100548.64;;;13.01;100.00
59073;BME280;44859;51.934;15.554;2022-10-17T05:22:06;100546.45;;;12.99;100.00
59073;BME280;44859;51.934;15.554;2022-10-17T05:24:34;100552.81;;;12.99;100.00
59073;BME280;44859;51.934;15.554;2022-10-17T05:27:02;100554.59;;;12.98;100.00
59073;BME280;44859;51.934;15.554;2022-10-17T05:29:30;100557.98;;;12.98;100.00
59073;BME280;44859;51.934;15.554;2022-10-17T05:31:58;100556.22;;;12.93;100.00
59073;BME280;44859;51.934;15.554;2022-10-17T05:34:26;100556.89;;;12.90;100.00
59073;BME280;44859;51.934;15.554;2022-10-17T05:36:56;100554.02;;;12.87;100.00
59073;BME280;44859;51.934;15.554;2022-10-17T05:39:29;100559.49;;;12.83;100.00
59073;BME280;44859;51.934;15.554;2022-10-17T05:41:57;100561.42;;;12.80;100.00
59073;BME280;44859;51.934;15.554;2022-10-17T05:44:25;100560.41;;;12.79;100.00
59073;BME280;44859;51.934;15.554;2022-10-17T05:46:53;100562.84;;;12.75;100.00
59073;BME280;44859;51.934;15.554;2022-10-17T05:49:21;100565.17;;;12.75;100.00
59073;BME280;44859;51.934;15.554;2022-10-17T05:52:10;100565.02;;;12.74;100.00
59073;BME280;44859;51.934;15.554;2022-10-17T05:54:38;100565.02;;;12.74;100.00
59073;BME280;44859;51.934;15.554;2022-10-17T05:57:06;100566.49;;;12.73;100.00
59073;BME280;44859;51.934;15.554;2022-10-17T05:59:34;100566.42;;;12.71;100.00
59073;BME280;44859;51.934;15.554;2022-10-17T06:02:03;100570.42;;;12.68;100.00
59073;BME280;44859;51.934;15.554;2022-10-17T06:04:34;100570.00;;;12.66;100.00
59073;BME280;44859;51.934;15.554;2022-10-17T06:07:03;100573.77;;;12.68;100.00
59073;BME280;44859;51.934;15.554;2022-10-17T06:09:32;100574.48;;;12.71;100.00
59073;BME280;44859;51.934;15.554;2022-10-17T06:12:00;100578.62;;;12.77;100.00
59073;BME280;44859;51.934;15.554;2022-10-17T06:14:28;100579.53;;;12.85;100.00
59073;BME280;44859;51.934;15.554;2022-10-17T06:16:56;100580.61;;;12.92;100.00
59073;BME280;44859;51.934;15.554;2022-10-17T06:19:26;100580.99;;;12.95;100.00
59073;BME280;44859;51.934;15.554;2022-10-17T06:21:54;100585.88;;;12.92;100.00
59073;BME280;44859;51.934;15.554;2022-10-17T06:24:23;100582.54;;;12.92;100.00
59073;BME280;44859;51.934;15.554;2022-10-17T06:26:51;100584.69;;;12.91;100.00
59073;BME280;44859;51.934;15.554;2022-10-17T06:29:23;100580.09;;;12.91;100.00
59073;BME280;44859;51.934;15.554;2022-10-17T06:31:55;100581.92;;;12.90;100.00
59073;BME280;44859;51.934;15.554;2022-10-17T06:34:23;100589.08;;;12.92;100.00
59073;BME280;44859;51.934;15.554;2022-10-17T06:36:58;100587.08;;;12.93;100.00
59073;BME280;44859;51.934;15.554;2022-10-17T06:39:34;100590.48;;;12.96;100.00
59073;BME280;44859;51.934;15.554;2022-10-17T06:42:10;100593.38;;;13.02;100.00
59073;BME280;44859;51.934;15.554;2022-10-17T06:44:57;100594.95;;;13.06;100.00
59073;BME280;44859;51.934;15.554;2022-10-17T06:47:26;100597.77;;;13.10;100.00
59073;BME280;44859;51.934;15.554;2022-10-17T06:50:01;100601.62;;;13.15;100.00
59073;BME280;44859;51.934;15.554;2022-10-17T06:52:35;100604.02;;;13.19;100.00
59073;BME280;44859;51.934;15.554;2022-10-17T06:55:16;100608.05;;;13.24;100.00
59073;BME280;44859;51.934;15.554;2022-10-17T06:58:00;100613.88;;;13.28;100.00
59073;BME280;44859;51.934;15.554;2022-10-17T07:00:29;100619.20;;;13.30;100.00
59073;BME280;44859;51.934;15.554;2022-10-17T07:03:07;100626.29;;;13.35;100.00
59073;BME280;44859;51.934;15.554;2022-10-17T07:05:53;100633.27;;;13.40;100.00
59073;BME280;44859;51.934;15.554;2022-10-17T07:08:24;100636.83;;;13.39;100.00
59073;BME280;44859;51.934;15.554;2022-10-17T07:11:15;100639.89;;;13.41;100.00
59073;BME280;44859;51.934;15.554;2022-10-17T07:13:50;100632.96;;;13.46;100.00
59073;BME280;44859;51.934;15.554;2022-10-17T07:16:24;100640.60;;;13.53;100.00
59073;BME280;44859;51.934;15.554;2022-10-17T07:19:11;100642.27;;;13.62;100.00
59073;BME280;44859;51.934;15.554;2022-10-17T07:21:52;100642.22;;;13.71;100.00
59073;BME280;44859;51.934;15.554;2022-10-17T07:24:47;100638.55;;;13.81;100.00
59073;BME280;44859;51.934;15.554;2022-10-17T07:27:26;100639.18;;;13.90;100.00
59073;BME280;44859;51.934;15.554;2022-10-17T07:29:55;100637.02;;;13.98;100.00
59073;BME280;44859;51.934;15.554;2022-10-17T07:32:26;100636.58;;;14.07;100.00
59073;BME280;44859;51.934;15.554;2022-10-17T07:35:00;100637.48;;;14.17;100.00
59073;BME280;44859;51.934;15.554;2022-10-17T07:37:34;100637.42;;;14.29;100.00
59073;BME280;44859;51.934;15.554;2022-10-17T07:40:15;100632.48;;;14.42;100.00
59073;BME280;44859;51.934;15.554;2022-10-17T07:42:48;100637.98;;;14.56;100.00
59073;BME280;44859;51.934;15.554;2022-10-17T07:45:43;100633.69;;;14.67;100.00
59073;BME280;44859;51.934;15.554;2022-10-17T07:48:29;100634.70;;;14.79;100.00
59073;BME280;44859;51.934;15.554;2022-10-17T07:51:31;100635.76;;;14.92;100.00
59073;BME280;44859;51.934;15.554;2022-10-17T07:54:20;100638.80;;;15.01;99.93
59073;BME280;44859;51.934;15.554;2022-10-17T07:56:57;100638.34;;;15.07;99.64
59073;BME280;44859;51.934;15.554;2022-10-17T07:59:26;100639.41;;;15.09;99.28
59073;BME280;44859;51.934;15.554;2022-10-17T08:01:58;100641.58;;;15.13;98.15
59073;BME280;44859;51.934;15.554;2022-10-17T08:04:41;100641.90;;;15.16;98.04
59073;BME280;44859;51.934;15.554;2022-10-17T08:07:14;100644.46;;;15.25;97.54
59073;BME280;44859;51.934;15.554;2022-10-17T08:09:53;100646.02;;;15.32;97.18
59073;BME280;44859;51.934;15.554;2022-10-17T08:12:21;100651.59;;;15.39;96.92
59073;BME280;44859;51.934;15.554;2022-10-17T08:14:57;100652.20;;;15.48;96.38
59073;BME280;44859;51.934;15.554;2022-10-17T08:17:52;100650.60;;;15.55;95.39
59073;BME280;44859;51.934;15.554;2022-10-17T08:20:33;100652.14;;;15.62;93.91
59073;BME280;44859;51.934;15.554;2022-10-17T08:23:04;100656.23;;;15.71;93.75
59073;BME280;44859;51.934;15.554;2022-10-17T08:25:41;100658.61;;;15.79;92.57
59073;BME280;44859;51.934;15.554;2022-10-17T08:28:16;100656.21;;;15.85;91.51
59073;BME280;44859;51.934;15.554;2022-10-17T08:31:11;100655.70;;;15.87;91.17
59073;BME280;44859;51.934;15.554;2022-10-17T08:33:53;100655.49;;;15.88;90.41
59073;BME280;44859;51.934;15.554;2022-10-17T08:36:26;100654.47;;;15.93;90.29
59073;BME280;44859;51.934;15.554;2022-10-17T08:39:05;100653.16;;;16.07;89.68
59073;BME280;44859;51.934;15.554;2022-10-17T08:47:34;100650.35;;;16.54;87.27
59073;BME280;44859;51.934;15.554;2022-10-17T08:50:28;100651.07;;;16.66;87.78
59073;BME280;44859;51.934;15.554;2022-10-17T08:53:23;100651.00;;;16.82;87.39
59073;BME280;44859;51.934;15.554;2022-10-17T08:56:24;100646.27;;;16.99;86.61
59073;BME280;44859;51.934;15.554;2022-10-17T08:59:25;100643.29;;;17.15;86.19
59073;BME280;44859;51.934;15.554;2022-10-17T09:02:02;100646.87;;;17.26;84.49
59073;BME280;44859;51.934;15.554;2022-10-17T09:10:32;100642.83;;;17.56;81.91
59073;BME280;44859;51.934;15.554;2022-10-17T09:19:16;100640.00;;;17.73;80.41
59073;BME280;44859;51.934;15.554;2022-10-17T09:22:11;100634.98;;;17.87;80.25
59073;BME280;44859;51.934;15.554;2022-10-17T09:24:56;100633.41;;;18.06;79.95
59073;BME280;44859;51.934;15.554;2022-10-17T09:27:50;100634.31;;;18.19;78.96
59073;BME280;44859;51.934;15.554;2022-10-17T09:30:37;100628.46;;;18.35;78.57
59073;BME280;44859;51.934;15.554;2022-10-17T09:33:41;100626.99;;;18.51;78.14
59073;BME280;44859;51.934;15.554;2022-10-17T09:36:39;100626.69;;;18.68;76.73
59073;BME280;44859;51.934;15.554;2022-10-17T09:39:26;100627.54;;;18.72;76.55
59073;BME280;44859;51.934;15.554;2022-10-17T09:42:03;100626.80;;;18.79;77.23
59073;BME280;44859;51.934;15.554;2022-10-17T09:47:33;100628.23;;;19.00;76.49
59073;BME280;44859;51.934;15.554;2022-10-17T09:50:22;100631.35;;;19.14;74.62
59073;BME280;44859;51.934;15.554;2022-10-17T09:52:54;100630.33;;;19.26;73.97
59073;BME280;44859;51.934;15.554;2022-10-17T09:55:43;100631.09;;;19.35;73.98
59073;BME280;44859;51.934;15.554;2022-10-17T09:58:45;100636.45;;;19.52;72.59
59073;BME280;44859;51.934;15.554;2022-10-17T10:04:29;100637.97;;;19.81;70.90
59073;BME280;44859;51.934;15.554;2022-10-17T10:07:24;100631.10;;;20.03;71.06
59073;BME280;44859;51.934;15.554;2022-10-17T10:10:02;100631.86;;;20.19;70.62
59073;BME280;44859;51.934;15.554;2022-10-17T10:12:36;100633.11;;;20.31;70.71
59073;BME280;44859;51.934;15.554;2022-10-17T10:15:31;100630.59;;;20.43;70.57
59073;BME280;44859;51.934;15.554;2022-10-17T10:21:15;100633.31;;;20.75;67.74
59073;BME280;44859;51.934;15.554;2022-10-17T10:26:57;100631.89;;;20.71;65.60
59073;BME280;44859;51.934;15.554;2022-10-17T10:29:31;100630.12;;;20.66;65.54
59073;BME280;44859;51.934;15.554;2022-10-17T10:32:20;100632.69;;;20.58;66.23
59073;BME280;44859;51.934;15.554;2022-10-17T10:37:44;100636.65;;;20.41;67.02
59073;BME280;44859;51.934;15.554;2022-10-17T10:41:06;100631.24;;;20.39;67.20
59073;BME280;44859;51.934;15.554;2022-10-17T10:43:40;100633.03;;;20.37;66.99
59073;BME280;44859;51.934;15.554;2022-10-17T10:46:24;100634.35;;;20.36;67.00
59073;BME280;44859;51.934;15.554;2022-10-17T10:49:02;100631.48;;;20.55;67.09
59073;BME280;44859;51.934;15.554;2022-10-17T10:51:49;100625.06;;;20.96;65.66
59073;BME280;44859;51.934;15.554;2022-10-17T10:54:31;100624.73;;;21.32;65.12
59073;BME280;44859;51.934;15.554;2022-10-17T10:57:30;100625.97;;;21.59;64.36
59073;BME280;44859;51.934;15.554;2022-10-17T11:00:14;100631.41;;;21.58;62.60
59073;BME280;44859;51.934;15.554;2022-10-17T11:03:47;100631.30;;;21.50;63.50
59073;BME280;44859;51.934;15.554;2022-10-17T11:06:15;100629.88;;;21.55;62.89
59073;BME280;44859;51.934;15.554;2022-10-17T11:11:51;100632.02;;;21.57;61.92
59073;BME280;44859;51.934;15.554;2022-10-17T11:17:34;100625.58;;;21.90;61.65
59073;BME280;44859;51.934;15.554;2022-10-17T11:20:19;100626.80;;;22.07;60.75
59073;BME280;44859;51.934;15.554;2022-10-17T11:25:43;100623.38;;;22.22;60.19
59073;BME280;44859;51.934;15.554;2022-10-17T11:28:36;100622.56;;;22.30;59.47
59073;BME280;44859;51.934;15.554;2022-10-17T11:31:12;100615.38;;;22.41;60.77
59073;BME280;44859;51.934;15.554;2022-10-17T11:33:53;100607.44;;;22.61;60.33
59073;BME280;44859;51.934;15.554;2022-10-17T11:36:31;100608.90;;;22.71;59.41
59073;BME280;44859;51.934;15.554;2022-10-17T11:39:28;100604.77;;;22.67;58.69
59073;BME280;44859;51.934;15.554;2022-10-17T11:42:18;100602.11;;;22.63;59.00
59073;BME280;44859;51.934;15.554;2022-10-17T11:45:08;100599.97;;;22.65;57.76
59073;BME280;44859;51.934;15.554;2022-10-17T11:47:52;100595.10;;;22.52;57.80
59073;BME280;44859;51.934;15.554;2022-10-17T11:50:44;100595.15;;;22.56;58.28
59073;BME280;44859;51.934;15.554;2022-10-17T11:56:45;100589.90;;;22.88;57.57
59073;BME280;44859;51.934;15.554;2022-10-17T12:05:22;100586.08;;;23.19;57.04
59073;BME280;44859;51.934;15.554;2022-10-17T12:08:03;100575.10;;;23.48;57.63
59073;BME280;44859;51.934;15.554;2022-10-17T12:11:20;100571.85;;;23.85;57.21
59073;BME280;44859;51.934;15.554;2022-10-17T12:13:55;100577.97;;;24.03;55.72
59073;BME280;44859;51.934;15.554;2022-10-17T12:19:23;100577.88;;;24.05;55.12
59073;BME280;44859;51.934;15.554;2022-10-17T12:22:01;100573.10;;;23.99;54.86
59073;BME280;44859;51.934;15.554;2022-10-17T12:27:38;100571.39;;;23.87;54.62
59073;BME280;44859;51.934;15.554;2022-10-17T12:30:28;100565.40;;;23.75;53.95
59073;BME280;44859;51.934;15.554;2022-10-17T12:33:02;100564.73;;;23.61;54.38
59073;BME280;44859;51.934;15.554;2022-10-17T12:35:36;100565.59;;;23.49;55.44
59073;BME280;44859;51.934;15.554;2022-10-17T12:38:27;100560.58;;;23.46;55.72
59073;BME280;44859;51.934;15.554;2022-10-17T12:40:57;100557.10;;;23.34;55.12
59073;BME280;44859;51.934;15.554;2022-10-17T12:51:12;100551.25;;;22.97;56.37
59073;BME280;44859;51.934;15.554;2022-10-17T12:54:12;100547.34;;;22.95;56.33
59073;BME280;44859;51.934;15.554;2022-10-17T12:56:45;100545.23;;;23.05;56.02
59073;BME280;44859;51.934;15.554;2022-10-17T12:59:31;100543.09;;;23.29;56.02
59073;BME280;44859;51.934;15.554;2022-10-17T13:02:08;100539.98;;;23.55;56.45
59073;BME280;44859;51.934;15.554;2022-10-17T13:04:49;100538.81;;;23.94;55.76
59073;BME280;44859;51.934;15.554;2022-10-17T13:07:35;100530.85;;;24.10;54.76
59073;BME280;44859;51.934;15.554;2022-10-17T13:10:19;100532.14;;;24.24;53.94
59073;BME280;44859;51.934;15.554;2022-10-17T13:13:21;100531.86;;;24.28;53.85
59073;BME280;44859;51.934;15.554;2022-10-17T13:15:53;100532.33;;;24.34;54.15
59073;BME280;44859;51.934;15.554;2022-10-17T13:18:25;100532.19;;;24.45;53.92
59073;BME280;44859;51.934;15.554;2022-10-17T13:23:40;100533.11;;;24.69;51.86
59073;BME280;44859;51.934;15.554;2022-10-17T13:26:32;100535.27;;;24.84;51.87
59073;BME280;44859;51.934;15.554;2022-10-17T13:29:11;100538.14;;;24.95;50.93
59073;BME280;44859;51.934;15.554;2022-10-17T13:31:51;100535.27;;;24.95;50.80
59073;BME280;44859;51.934;15.554;2022-10-17T13:34:23;100535.81;;;25.08;50.16
59073;BME280;44859;51.934;15.554;2022-10-17T13:37:06;100534.92;;;25.12;49.98
59073;BME280;44859;51.934;15.554;2022-10-17T13:39:40;100527.60;;;25.08;49.68
59073;BME280;44859;51.934;15.554;2022-10-17T13:42:35;100524.56;;;24.61;50.11
59073;BME280;44859;51.934;15.554;2022-10-17T13:45:25;100524.00;;;24.23;50.85
59073;BME280;44859;51.934;15.554;2022-10-17T13:48:06;100525.81;;;24.12;51.26
59073;BME280;44859;51.934;15.554;2022-10-17T13:50:45;100519.76;;;24.30;51.40
59073;BME280;44859;51.934;15.554;2022-10-17T13:53:25;100518.45;;;24.40;50.78
59073;BME280;44859;51.934;15.554;2022-10-17T13:58:52;100517.44;;;24.05;51.12
59073;BME280;44859;51.934;15.554;2022-10-17T14:01:26;100520.03;;;23.87;50.82
59073;BME280;44859;51.934;15.554;2022-10-17T14:03:58;100520.27;;;23.75;50.90
59073;BME280;44859;51.934;15.554;2022-10-17T14:06:44;100519.23;;;23.59;51.01
59073;BME280;44859;51.934;15.554;2022-10-17T14:09:29;100513.48;;;23.47;51.46
59073;BME280;44859;51.934;15.554;2022-10-17T14:12:07;100514.14;;;23.50;51.26
59073;BME280;44859;51.934;15.554;2022-10-17T14:14:39;100510.33;;;23.40;51.26
59073;BME280;44859;51.934;15.554;2022-10-17T14:17:37;100516.14;;;23.38;51.50
59073;BME280;44859;51.934;15.554;2022-10-17T14:20:20;100513.14;;;23.45;51.67
59073;BME280;44859;51.934;15.554;2022-10-17T14:23:30;100513.34;;;23.37;51.89
59073;BME280;44859;51.934;15.554;2022-10-17T14:26:09;100514.02;;;23.25;52.24
59073;BME280;44859;51.934;15.554;2022-10-17T14:28:43;100512.05;;;23.14;52.65
59073;BME280;44859;51.934;15.554;2022-10-17T14:31:24;100511.84;;;23.00;53.16
59073;BME280;44859;51.934;15.554;2022-10-17T14:33:57;100515.48;;;22.87;53.51
59073;BME280;44859;51.934;15.554;2022-10-17T14:36:39;100510.98;;;22.77;53.87
59073;BME280;44859;51.934;15.554;2022-10-17T14:39:18;100511.42;;;22.74;54.09
59073;BME280;44859;51.934;15.554;2022-10-17T14:41:54;100513.91;;;22.74;54.32
59073;BME280;44859;51.934;15.554;2022-10-17T14:44:31;100510.58;;;22.71;54.75
59073;BME280;44859;51.934;15.554;2022-10-17T14:47:06;100508.67;;;22.73;55.10
59073;BME280;44859;51.934;15.554;2022-10-17T14:52:39;100510.35;;;22.66;55.35
59073;BME280;44859;51.934;15.554;2022-10-17T14:55:24;100512.43;;;22.60;55.70
59073;BME280;44859;51.934;15.554;2022-10-17T14:57:54;100511.64;;;22.51;56.19
59073;BME280;44859;51.934;15.554;2022-10-17T15:00:32;100514.35;;;22.36;56.57
59073;BME280;44859;51.934;15.554;2022-10-17T15:03:04;100515.63;;;22.23;57.09
59073;BME280;44859;51.934;15.554;2022-10-17T15:05:38;100514.64;;;22.08;57.77